Time;durP1;ratioP1;P1;durP2;ratioP2;P2;SDS_P1;SDS_P2;PMS_P1;PMS_P2;Temp;Humidity;BMP_temperature;BMP_pressure;BME280_temperature;BME280_humidity;BME280_pressure;Samples;Min_cycle;Max_cycle;Signal;HPM_P1;HPM_P2
2023/05/06 00:00:25;;;;;;;6.13;3.88;;;;;;;13.29;100.00;100652.75;5004483;28;20458;-76
2023/05/06 00:02:51;;;;;;;5.80;3.35;;;;;;;13.90;100.00;100743.69;5007118;28;20502;-75
2023/05/06 00:05:19;;;;;;;6.47;3.83;;;;;;;13.94;100.00;100726.94;5020311;28;20399;-74
2023/05/06 00:07:45;;;;;;;6.32;4.03;;;;;;;13.13;100.00;100622.09;5022808;28;20494;-75
2023/05/06 00:10:11;;;;;;;4.32;2.92;;;;;;;13.90;100.00;100767.44;5023991;28;20064;-76
2023/05/06 00:12:37;;;;;;;6.50;3.92;;;;;;;13.61;100.00;100748.34;5028780;28;20228;-78
2023/05/06 00:15:03;;;;;;;6.07;3.28;;;;;;;13.56;100.00;100736.94;5043177;28;20128;-77
2023/05/06 00:17:28;;;;;;;5.68;3.47;;;;;;;13.73;100.00;100759.66;5026796;28;20117;-76
2023/05/06 00:19:54;;;;;;;5.43;3.58;;;;;;;12.89;100.00;100615.25;5028087;28;20046;-76
2023/05/06 00:22:21;;;;;;;6.68;3.95;;;;;;;13.74;100.00;100760.53;5028187;28;20056;-76
2023/05/06 00:24:46;;;;;;;7.43;4.10;;;;;;;13.84;100.00;100750.81;5028697;28;20026;-76
2023/05/06 00:27:12;;;;;;;5.32;3.40;;;;;;;13.59;100.00;100729.00;5008455;28;20131;-76
2023/05/06 00:29:37;;;;;;;6.22;2.53;;;;;;;13.20;100.00;100633.47;5008047;28;20433;-77
2023/05/06 00:32:03;;;;;;;6.40;4.07;;;;;;;13.15;100.00;100640.53;5018142;28;20341;-76
2023/05/06 00:34:29;;;;;;;6.90;3.83;;;;;;;13.78;100.00;100758.75;5024775;28;20046;-78
2023/05/06 00:36:54;;;;;;;5.78;3.17;;;;;;;12.91;100.00;100625.78;5020292;28;20025;-77
2023/05/06 00:39:20;;;;;;;6.35;3.17;;;;;;;13.19;100.00;100660.72;4999122;28;20030;-76
2023/05/06 00:41:46;;;;;;;9.40;3.33;;;;;;;13.29;100.00;100691.44;5003148;28;20058;-77
2023/05/06 00:44:11;;;;;;;4.90;2.92;;;;;;;13.61;100.00;100759.75;5000799;28;20039;-75
2023/05/06 00:46:37;;;;;;;7.85;3.00;;;;;;;13.60;100.00;100765.94;5006240;28;20066;-76
2023/05/06 00:49:02;;;;;;;4.90;2.88;;;;;;;13.53;100.00;100751.00;5007430;28;20429;-77
2023/05/06 00:51:28;;;;;;;5.10;3.58;;;;;;;13.07;100.00;100666.94;5008141;28;20459;-76
2023/05/06 00:53:55;;;;;;;9.23;3.83;;;;;;;13.33;100.00;100727.44;5005933;28;20053;-77
2023/05/06 00:56:21;;;;;;;6.38;3.13;;;;;;;12.99;100.00;100658.22;5008090;28;20117;-76
2023/05/06 00:58:47;;;;;;;4.32;2.92;;;;;;;13.66;100.00;100767.63;5007765;28;20157;-76
2023/05/06 01:01:13;;;;;;;7.13;3.75;;;;;;;12.66;100.00;100618.00;5002932;28;20129;-76
2023/05/06 01:03:38;;;;;;;5.80;2.97;;;;;;;12.82;100.00;100653.03;5007651;28;20496;-75
2023/05/06 01:06:28;;;;;;;6.60;4.07;;;;;;;13.43;100.00;100763.38;5007318;28;20049;-75
2023/05/06 01:09:04;;;;;;;5.47;2.78;;;;;;;12.73;100.00;100653.09;5005433;28;20046;-74
2023/05/06 01:11:43;;;;;;;4.82;2.67;;;;;;;13.47;100.00;100748.44;5005026;28;20053;-74
2023/05/06 01:14:32;;;;;;;6.30;4.18;;;;;;;13.51;100.00;100752.81;5016922;28;20052;-75
2023/05/06 01:17:03;;;;;;;4.90;2.40;;;;;;;13.26;100.00;100717.78;5004685;28;20049;-75
2023/05/06 01:19:55;;;;;;;5.72;3.15;;;;;;;13.38;100.00;100749.34;5006502;28;20898;-76
2023/05/06 01:22:23;;;;;;;5.55;2.88;;;;;;;13.30;100.00;100741.50;5002197;28;20160;-74
2023/05/06 01:24:49;;;;;;;4.28;2.95;;;;;;;13.10;100.00;100712.56;5007950;28;20033;-75
2023/05/06 01:27:17;;;;;;;7.10;3.42;;;;;;;13.03;100.00;100667.84;5007090;28;20061;-76
2023/05/06 01:29:45;;;;;;;6.95;4.38;;;;;;;13.18;100.00;100719.56;5011137;28;20049;-78
2023/05/06 01:32:28;;;;;;;4.97;3.17;;;;;;;13.23;100.00;100742.38;5006764;28;20046;-75
2023/05/06 01:35:09;;;;;;;5.57;3.63;;;;;;;13.38;100.00;100744.09;5006958;28;20057;-75
2023/05/06 01:37:46;;;;;;;6.80;4.22;;;;;;;13.29;100.00;100741.50;5003133;28;20053;-77
2023/05/06 01:40:15;;;;;;;5.80;3.53;;;;;;;12.60;100.00;100640.00;4997848;28;20406;-75
2023/05/06 01:42:41;;;;;;;7.30;3.42;;;;;;;12.48;100.00;100604.94;5007460;28;20041;-75
2023/05/06 01:45:08;;;;;;;5.57;4.10;;;;;;;13.13;100.00;100735.41;5006797;28;20046;-74
2023/05/06 01:47:35;;;;;;;5.95;4.05;;;;;;;12.77;100.00;100696.97;5004922;28;20406;-76
2023/05/06 01:50:00;;;;;;;6.03;3.50;;;;;;;13.00;100.00;100746.91;5006591;28;20042;-75
2023/05/06 01:52:26;;;;;;;6.03;3.88;;;;;;;12.64;100.00;100693.47;5006637;28;20445;-76
2023/05/06 01:54:51;;;;;;;5.70;3.10;;;;;;;13.12;100.00;100733.66;5006694;28;20737;-75
2023/05/06 01:57:17;;;;;;;6.68;5.15;;;;;;;12.89;100.00;100670.56;5010863;28;20409;-75
2023/05/06 01:59:42;;;;;;;5.45;4.25;;;;;;;13.10;100.00;100714.34;5011021;28;20049;-76
2023/05/06 02:02:08;;;;;;;6.43;3.88;;;;;;;12.16;100.00;100609.47;5009242;28;20172;-76
2023/05/06 02:04:33;;;;;;;6.40;4.18;;;;;;;12.64;100.00;100710.19;5009922;28;20046;-75
2023/05/06 02:06:59;;;;;;;6.70;4.07;;;;;;;12.78;100.00;100719.75;5010447;28;20041;-75
2023/05/06 02:09:24;;;;;;;5.10;3.45;;;;;;;11.91;100.00;100586.75;5010711;28;20030;-74
2023/05/06 02:11:50;;;;;;;6.05;3.72;;;;;;;12.57;100.00;100662.81;5026454;28;20513;-74
2023/05/06 02:14:15;;;;;;;6.32;3.03;;;;;;;12.31;100.00;100620.81;5029235;28;20501;-75
2023/05/06 02:16:41;;;;;;;6.07;2.95;;;;;;;13.10;100.00;100717.84;5040852;28;20038;-73
2023/05/06 02:19:06;;;;;;;4.72;2.42;;;;;;;12.32;100.00;100623.44;5032862;28;20024;-75
2023/05/06 02:21:32;;;;;;;7.70;3.17;;;;;;;12.84;100.00;100682.88;5030817;28;20393;-75
2023/05/06 02:23:57;;;;;;;5.05;3.15;;;;;;;13.16;100.00;100722.22;5029588;28;20041;-76
2023/05/06 02:26:23;;;;;;;6.18;3.20;;;;;;;12.68;100.00;100642.56;5029599;28;20050;-76
2023/05/06 02:28:48;;;;;;;7.43;4.55;;;;;;;12.92;100.00;100723.22;5029622;28;20045;-76
2023/05/06 02:31:14;;;;;;;5.07;2.65;;;;;;;12.78;100.00;100698.69;5028637;28;20052;-75
2023/05/06 02:33:40;;;;;;;8.57;3.65;;;;;;;12.18;100.00;100597.19;5028806;28;20119;-75
2023/05/06 02:36:06;;;;;;;6.10;3.80;;;;;;;12.11;100.00;100611.22;5029396;28;20153;-74
2023/05/06 02:38:31;;;;;;;6.80;3.13;;;;;;;12.65;100.00;100724.22;5026443;28;20464;-74
2023/05/06 02:40:57;;;;;;;5.03;3.45;;;;;;;11.77;100.00;100577.09;5008359;28;20034;-75
2023/05/06 02:43:22;;;;;;;3.63;2.72;;;;;;;12.55;100.00;100706.69;5009655;28;20049;-73
2023/05/06 02:45:48;;;;;;;5.63;3.97;;;;;;;12.14;100.00;100650.66;5010459;28;20033;-76
2023/05/06 02:48:13;;;;;;;4.78;3.03;;;;;;;12.33;100.00;100674.31;5009413;28;20057;-75
2023/05/06 02:50:39;;;;;;;6.82;3.53;;;;;;;11.43;100.00;100542.13;5005277;28;20061;-77
2023/05/06 02:53:05;;;;;;;5.57;3.10;;;;;;;12.48;100.00;100716.38;5008957;28;20037;-77
2023/05/06 02:55:31;;;;;;;6.43;4.03;;;;;;;12.23;100.00;100665.56;5014597;28;20052;-74
2023/05/06 02:57:56;;;;;;;3.75;2.95;;;;;;;12.52;100.00;100714.59;5029154;28;20128;-76
2023/05/06 03:00:22;;;;;;;4.40;2.70;;;;;;;12.49;100.00;100691.78;5039732;28;20061;-76
2023/05/06 03:02:47;;;;;;;4.43;2.47;;;;;;;11.81;100.00;100605.13;5030880;28;20086;-77
2023/05/06 03:05:12;;;;;;;5.85;4.38;;;;;;;11.93;100.00;100646.34;5017840;28;20061;-76
2023/05/06 03:07:38;;;;;;;6.00;3.67;;;;;;;11.61;100.00;100586.78;5003826;28;20120;-75
2023/05/06 03:10:04;;;;;;;7.95;3.28;;;;;;;12.38;100.00;100683.06;5009007;28;20042;-75
2023/05/06 03:12:29;;;;;;;4.15;2.40;;;;;;;12.61;100.00;100699.63;5029712;28;20202;-77
2023/05/06 03:14:55;;;;;;;5.53;3.67;;;;;;;12.54;100.00;100721.59;5028254;28;20045;-76
2023/05/06 03:17:20;;;;;;;5.85;2.78;;;;;;;12.64;100.00;100727.72;5027017;28;20041;-76
2023/05/06 03:19:48;;;;;;;4.38;2.78;;;;;;;11.71;100.00;100592.03;5020711;28;20054;-76
2023/05/06 03:22:13;;;;;;;8.88;3.90;;;;;;;12.45;100.00;100697.94;5008833;28;20124;-76
2023/05/06 03:24:39;;;;;;;5.35;3.67;;;;;;;11.72;100.00;100607.78;5009075;28;20569;-77
2023/05/06 03:27:05;;;;;;;5.03;3.10;;;;;;;11.85;100.00;100613.91;5026756;28;20053;-75
2023/05/06 03:29:30;;;;;;;5.20;3.10;;;;;;;12.35;100.00;100728.69;5028735;28;20041;-75
2023/05/06 03:31:56;;;;;;;6.15;3.70;;;;;;;11.59;100.00;100592.91;5028165;28;20084;-76
2023/05/06 03:34:21;;;;;;;5.10;3.42;;;;;;;12.27;100.00;100716.41;5021692;28;20045;-76
2023/05/06 03:36:47;;;;;;;7.78;4.10;;;;;;;12.22;100.00;100700.63;5004817;28;20091;-76
2023/05/06 03:39:12;;;;;;;6.70;3.40;;;;;;;12.25;100.00;100692.75;4999831;28;20461;-76
2023/05/06 03:41:38;;;;;;;7.05;3.65;;;;;;;12.26;100.00;100715.53;5016484;28;20060;-76
2023/05/06 03:44:03;;;;;;;6.45;3.10;;;;;;;11.50;100.00;100579.78;5027390;28;20634;-76
2023/05/06 03:46:29;;;;;;;6.30;3.40;;;;;;;12.24;100.00;100712.94;5028721;28;20072;-76
2023/05/06 03:48:54;;;;;;;6.50;3.47;;;;;;;12.25;100.00;100709.41;5028207;28;20045;-76
2023/05/06 03:51:20;;;;;;;5.18;3.95;;;;;;;11.84;100.00;100607.75;5044293;28;20401;-76
2023/05/06 03:53:45;;;;;;;5.75;3.35;;;;;;;12.18;100.00;100672.59;5015473;28;20108;-77
2023/05/06 03:56:11;;;;;;;4.72;2.55;;;;;;;12.48;100.00;100726.91;5028020;28;20084;-76
2023/05/06 03:58:36;;;;;;;6.45;3.22;;;;;;;12.48;100.00;100723.38;5028163;28;20115;-75
2023/05/06 04:01:03;;;;;;;5.95;3.17;;;;;;;11.96;100.00;100630.56;5028137;28;20388;-74
2023/05/06 04:03:28;;;;;;;6.70;2.95;;;;;;;11.95;100.00;100615.66;5022872;28;20033;-75
2023/05/06 04:05:54;;;;;;;4.63;3.03;;;;;;;12.64;100.00;100725.06;5028169;28;20050;-75
2023/05/06 04:08:19;;;;;;;5.00;3.40;;;;;;;12.34;100.00;100655.00;5026901;28;20041;-77
2023/05/06 04:10:45;;;;;;;4.18;2.70;;;;;;;12.70;100.00;100730.34;5008836;28;20049;-74
2023/05/06 04:13:10;;;;;;;5.45;3.65;;;;;;;12.65;100.00;100695.25;5007607;28;20160;-76
2023/05/06 04:15:36;;;;;;;5.82;3.83;;;;;;;12.84;100.00;100720.63;5008577;28;20034;-75
2023/05/06 04:18:02;;;;;;;5.65;3.75;;;;;;;12.64;100.00;100678.59;5008056;28;20116;-75
2023/05/06 04:20:28;;;;;;;5.15;3.22;;;;;;;13.27;100.00;100790.66;5006023;28;20431;-75
2023/05/06 04:22:53;;;;;;;4.95;2.97;;;;;;;12.60;100.00;100665.44;5007452;28;20057;-78
2023/05/06 04:25:18;;;;;;;6.13;3.40;;;;;;;13.44;100.00;100812.59;5007833;28;20046;-74
2023/05/06 04:27:45;;;;;;;7.50;3.63;;;;;;;12.90;100.00;100703.94;5008608;28;20080;-76
2023/05/06 04:30:11;;;;;;;5.78;3.33;;;;;;;12.78;100.00;100696.06;4998401;28;20088;-74
2023/05/06 04:32:37;;;;;;;6.72;3.55;;;;;;;13.02;100.00;100727.56;5007994;28;20105;-75
2023/05/06 04:35:03;;;;;;;6.05;2.95;;;;;;;12.76;100.00;100684.66;5007772;28;20383;-75
2023/05/06 04:37:29;;;;;;;7.25;3.85;;;;;;;13.55;100.00;100811.66;5006329;28;20057;-76
2023/05/06 04:39:55;;;;;;;5.72;3.08;;;;;;;13.48;100.00;100795.84;4993813;28;20027;-75
2023/05/06 04:42:21;;;;;;;7.75;3.85;;;;;;;12.91;100.00;100666.16;5007463;28;20038;-76
2023/05/06 04:44:47;;;;;;;5.07;3.42;;;;;;;13.16;100.00;100708.16;5006729;28;20040;-75
2023/05/06 04:47:13;;;;;;;4.88;3.35;;;;;;;13.26;100.00;100710.72;5012695;28;20496;-75
2023/05/06 04:49:39;;;;;;;8.52;3.42;;;;;;;14.03;100.00;100830.69;5009920;28;20050;-75
2023/05/06 04:52:04;;;;;;;4.95;2.97;;;;;;;13.42;100.00;100708.03;5010385;28;20049;-75
2023/05/06 04:54:30;;;;;;;5.78;3.05;;;;;;;13.46;100.00;100709.75;5008255;28;20065;-72
2023/05/06 04:56:55;;;;;;;5.68;3.15;;;;;;;14.01;100.00;100827.19;5003616;28;20076;-75
2023/05/06 04:59:21;;;;;;;3.97;2.15;;;;;;;13.62;100.00;100728.97;5006955;28;20042;-73
2023/05/06 05:01:46;;;;;;;5.03;4.15;;;;;;;13.61;100.00;100728.13;5003420;28;20053;-74
2023/05/06 05:04:12;;;;;;;5.70;3.20;;;;;;;14.43;100.00;100851.47;5005755;28;20054;-74
2023/05/06 05:06:37;;;;;;;4.85;2.75;;;;;;;14.34;100.00;100815.47;5015795;28;20084;-76
2023/05/06 05:09:03;;;;;;;5.70;2.78;;;;;;;14.44;100.00;100829.44;5005292;28;20405;-74
2023/05/06 05:11:28;;;;;;;3.88;2.95;;;;;;;14.07;100.00;100735.66;5020452;28;20045;-74
2023/05/06 05:13:53;;;;;;;6.57;3.85;;;;;;;14.69;100.00;100819.56;5020891;28;20481;-73
2023/05/06 05:16:19;;;;;;;5.65;4.00;;;;;;;15.19;100.00;100852.47;5033053;28;20057;-74
2023/05/06 05:18:44;;;;;;;6.18;3.63;;;;;;;14.66;100.00;100711.31;5030034;28;20036;-75
2023/05/06 05:21:10;;;;;;;5.22;2.90;;;;;;;15.76;100.00;100880.88;5008139;28;20042;-75
2023/05/06 05:23:35;;;;;;;4.53;2.95;;;;;;;15.99;100.00;100844.38;5003567;28;20050;-73
2023/05/06 05:26:02;;;;;;;5.80;3.58;;;;;;;16.36;100.00;100874.66;5016030;28;20045;-74
2023/05/06 05:28:27;;;;;;;7.13;2.50;;;;;;;16.38;100.00;100791.63;5025821;28;20532;-75
2023/05/06 05:30:53;;;;;;;6.05;3.33;;;;;;;16.32;100.00;100762.63;5039503;28;20061;-75
2023/05/06 05:33:18;;;;;;;5.05;2.63;;;;;;;17.10;100.00;100874.25;5005495;28;20025;-74
2023/05/06 05:35:44;;;;;;;5.10;2.40;;;;;;;17.15;100.00;100848.53;5009611;28;20058;-74
2023/05/06 05:38:12;;;;;;;8.55;3.00;;;;;;;16.93;100.00;100770.31;5020849;28;20042;-74
2023/05/06 05:40:38;;;;;;;4.47;2.30;;;;;;;16.87;100.00;100800.47;5004739;28;20052;-75
2023/05/06 05:43:03;;;;;;;5.25;3.97;;;;;;;17.16;100.00;100886.50;5006728;28;20034;-75
2023/05/06 05:45:29;;;;;;;5.43;2.40;;;;;;;17.02;100.00;100810.78;4998895;28;20034;-74
2023/05/06 05:47:54;;;;;;;4.95;2.30;;;;;;;17.50;100.00;100899.97;5006424;28;20847;-75
2023/05/06 05:50:20;;;;;;;5.40;2.47;;;;;;;17.22;100.00;100841.31;5013638;28;20056;-74
2023/05/06 05:52:45;;;;;;;5.68;2.65;;;;;;;16.66;100.00;100802.59;5025940;28;20104;-73
2023/05/06 05:55:11;;;;;;;6.93;3.15;;;;;;;16.88;100.00;100800.44;5024919;28;20045;-74
2023/05/06 05:57:36;;;;;;;5.07;3.22;;;;;;;17.23;100.00;100889.03;5027251;28;20529;-77
2023/05/06 06:00:04;;;;;;;4.07;2.13;;;;;;;16.86;100.00;100796.09;4997910;28;20056;-73
2023/05/06 06:02:30;;;;;;;5.28;2.30;;;;;;;17.31;100.00;100902.13;5004974;28;20046;-74
2023/05/06 06:04:55;;;;;;;3.28;1.98;;;;;;;17.27;100.00;100865.97;5006365;28;20081;-74
2023/05/06 06:07:21;;;;;;;4.03;2.25;;;;;;;17.07;100.00;100785.03;5005872;28;20524;-74
2023/05/06 06:09:47;;;;;;;2.75;1.60;;;;;;;16.50;100.00;100787.00;4997097;28;20061;-74
2023/05/06 06:12:13;;;;;;;5.68;2.40;;;;;;;16.59;100.00;100781.53;5026109;28;20041;-75
2023/05/06 06:14:39;;;;;;;4.93;2.67;;;;;;;17.20;100.00;100883.78;5025996;28;20042;-75
2023/05/06 06:17:04;;;;;;;2.92;1.77;;;;;;;17.14;100.00;100891.88;5038076;28;20413;-76
2023/05/06 06:19:30;;;;;;;5.75;2.42;;;;;;;17.23;100.00;100904.94;5025745;28;20421;-76
2023/05/06 06:21:56;;;;;;;4.18;2.85;;;;;;;17.31;100.00;100809.28;5025336;28;20033;-73
2023/05/06 06:24:21;;;;;;;2.72;1.60;;;;;;;17.68;100.00;100890.75;5036371;28;20056;-74
2023/05/06 06:26:47;;;;;;;4.63;2.47;;;;;;;16.98;100.00;100801.13;5009735;28;20048;-74
2023/05/06 06:29:12;;;;;;;3.97;2.03;;;;;;;17.65;100.00;100869.56;5007002;28;20038;-73
2023/05/06 06:31:38;;;;;;;4.10;2.35;;;;;;;17.48;100.00;100832.81;5006339;28;20467;-76
2023/05/06 06:34:05;;;;;;;7.55;3.67;;;;;;;18.19;100.00;100897.59;5004033;28;20046;-75
2023/05/06 06:36:31;;;;;;;5.75;2.88;;;;;;;17.03;100.00;100769.22;5003308;28;20037;-75
2023/05/06 06:38:56;;;;;;;4.85;2.90;;;;;;;17.31;100.00;100822.56;5002656;28;20177;-74
2023/05/06 06:41:22;;;;;;;3.53;2.05;;;;;;;17.53;100.00;100807.03;5015465;28;20513;-75
2023/05/06 06:43:47;;;;;;;5.40;2.72;;;;;;;17.39;100.00;100817.94;5009091;28;20540;-75
2023/05/06 06:46:13;;;;;;;3.55;1.98;;;;;;;17.64;100.00;100854.56;5000867;28;20049;-75
2023/05/06 06:48:38;;;;;;;2.80;1.80;;;;;;;17.74;100.00;100911.84;5009915;28;20038;-75
2023/05/06 06:51:04;;;;;;;6.00;2.35;;;;;;;17.66;100.00;100895.22;5009431;28;20123;-75
2023/05/06 06:53:29;;;;;;;2.67;1.73;;;;;;;17.60;100.00;100877.63;5004520;28;20076;-76
2023/05/06 06:55:55;;;;;;;4.05;2.03;;;;;;;17.16;100.00;100801.66;5009424;28;20049;-75
2023/05/06 06:58:20;;;;;;;5.60;1.98;;;;;;;17.61;100.00;100890.03;5009197;28;20049;-75
2023/05/06 07:00:46;;;;;;;5.38;2.00;;;;;;;17.48;100.00;100909.75;5009607;28;20041;-75
2023/05/06 07:03:14;;;;;;;3.88;1.98;;;;;;;17.17;100.00;100800.75;5003393;28;20387;-74
2023/05/06 07:05:40;;;;;;;4.10;2.30;;;;;;;17.96;100.00;100909.66;5008720;28;20056;-76
2023/05/06 07:08:05;;;;;;;4.72;3.80;;;;;;;17.35;100.00;100832.22;5009143;28;20042;-75
2023/05/06 07:10:31;;;;;;;7.13;2.28;;;;;;;17.11;100.00;100796.44;5003515;28;20774;-73
2023/05/06 07:12:57;;;;;;;2.85;1.70;;;;;;;17.04;100.00;100811.63;5028507;28;20044;-77
2023/05/06 07:15:23;;;;;;;3.53;2.50;;;;;;;16.86;100.00;100799.59;5029198;28;20496;-74
2023/05/06 07:17:48;;;;;;;3.53;2.03;;;;;;;17.72;100.00;100888.00;5039535;28;20045;-75
2023/05/06 07:20:15;;;;;;;4.13;2.60;;;;;;;17.41;100.00;100840.00;5014033;28;20054;-75
2023/05/06 07:22:40;;;;;;;4.50;2.35;;;;;;;17.68;100.00;100917.31;5009271;28;20128;-75
2023/05/06 07:25:06;;;;;;;3.40;1.77;;;;;;;17.12;100.00;100842.41;5010758;28;20423;-75
2023/05/06 07:27:31;;;;;;;5.30;3.33;;;;;;;17.11;100.00;100860.06;5029644;28;20030;-75
2023/05/06 07:29:57;;;;;;;9.65;2.47;;;;;;;17.65;100.00;100936.81;5023660;28;20541;-76
2023/05/06 07:32:22;;;;;;;4.10;2.47;;;;;;;17.35;100.00;100820.69;5028904;28;20368;-75
2023/05/06 07:34:48;;;;;;;5.47;2.28;;;;;;;17.06;100.00;100815.09;5020351;28;20854;-75
2023/05/06 07:37:13;;;;;;;6.78;2.33;;;;;;;17.98;100.00;100934.38;5005415;28;20041;-74
2023/05/06 07:39:39;;;;;;;4.82;2.97;;;;;;;16.60;100.00;100730.28;4999690;28;20040;-74
2023/05/06 07:42:06;;;;;;;3.40;2.40;;;;;;;17.71;100.00;100911.91;5008552;28;20048;-74
2023/05/06 07:44:31;;;;;;;5.88;1.75;;;;;;;17.35;100.00;100852.53;5008280;28;20043;-77
2023/05/06 07:46:57;;;;;;;5.00;2.80;;;;;;;17.55;100.00;100913.16;5004310;28;20038;-75
2023/05/06 07:49:23;;;;;;;3.22;2.00;;;;;;;17.74;100.00;100882.66;5007413;28;20497;-73
2023/05/06 07:51:48;;;;;;;7.60;2.22;;;;;;;17.98;100.00;100937.03;5003064;28;20025;-76
2023/05/06 07:54:13;;;;;;;4.45;2.80;;;;;;;17.81;100.00;100864.84;5004907;28;20489;-69
2023/05/06 07:56:39;;;;;;;2.22;1.30;;;;;;;17.90;100.00;100939.84;5005101;28;20053;-72
2023/05/06 07:59:04;;;;;;;2.75;1.75;;;;;;;17.96;100.00;100912.31;5007003;28;20096;-69
2023/05/06 08:01:30;;;;;;;7.97;3.22;;;;;;;17.86;100.00;100833.75;5010173;28;20030;-68
2023/05/06 08:03:55;;;;;;;3.63;1.98;;;;;;;18.27;100.00;100947.00;5005794;28;20783;-73
2023/05/06 08:06:21;;;;;;;3.65;2.25;;;;;;;18.06;100.00;100886.41;5007222;28;20136;-73
2023/05/06 08:08:46;;;;;;;4.07;1.73;;;;;;;18.25;100.00;100836.38;5005454;28;20049;-74
2023/05/06 08:11:12;;;;;;;4.40;2.10;;;;;;;18.95;99.75;100916.97;4996806;28;20034;-73
2023/05/06 08:13:37;;;;;;;4.65;1.75;;;;;;;18.84;97.96;100952.75;5007954;28;20541;-78
2023/05/06 08:16:05;;;;;;;3.45;1.90;;;;;;;18.18;95.26;100826.81;5025450;28;20029;-76
2023/05/06 08:18:31;;;;;;;3.45;2.15;;;;;;;18.30;94.21;100827.34;5018626;28;20061;-74
2023/05/06 08:20:58;;;;;;;4.07;2.13;;;;;;;18.88;94.49;100925.16;5020250;28;20110;-76
2023/05/06 08:23:23;;;;;;;2.63;1.58;;;;;;;18.22;91.85;100908.16;5020914;28;20505;-75
2023/05/06 08:25:49;;;;;;;3.40;1.60;;;;;;;18.00;92.24;100871.47;5021978;28;20052;-75
2023/05/06 08:28:14;;;;;;;2.25;1.30;;;;;;;18.79;89.94;100923.59;5023279;28;20134;-74
2023/05/06 08:30:40;;;;;;;4.38;1.98;;;;;;;17.90;88.99;100848.69;5021915;28;20069;-74
2023/05/06 08:33:05;;;;;;;5.03;1.95;;;;;;;18.06;89.79;100838.59;5008127;28;20375;-73
2023/05/06 08:35:31;;;;;;;2.42;1.20;;;;;;;18.20;86.81;100860.38;5001994;28;20052;-73
2023/05/06 08:37:56;;;;;;;2.53;1.77;;;;;;;18.12;92.15;100891.56;4999129;28;20715;-71
2023/05/06 08:40:23;;;;;;;2.67;1.60;;;;;;;18.41;92.39;100951.13;4993490;28;20474;-75
2023/05/06 08:42:49;;;;;;;2.97;1.85;;;;;;;17.78;92.61;100865.75;5006459;28;20038;-71
2023/05/06 08:45:18;;;;;;;4.03;1.77;;;;;;;18.61;87.34;100966.56;5005097;28;20126;-71
2023/05/06 08:47:45;;;;;;;4.28;2.92;;;;;;;18.22;88.51;100861.22;5003452;28;20508;-72
2023/05/06 08:50:11;;;;;;;3.33;2.05;;;;;;;18.20;91.67;100944.53;5005369;28;20037;-69
2023/05/06 08:52:40;;;;;;;3.10;2.08;;;;;;;18.44;89.01;100966.97;5004895;28;20688;-72
2023/05/06 08:55:06;;;;;;;3.33;2.25;;;;;;;17.65;87.87;100830.66;5004323;28;20239;-70
2023/05/06 08:57:33;;;;;;;3.97;2.47;;;;;;;18.92;83.18;100959.63;5014001;28;20025;-71
2023/05/06 08:59:59;;;;;;;13.27;2.67;;;;;;;19.44;76.74;100967.97;5006786;28;20073;-71
2023/05/06 09:02:25;;;;;;;6.32;3.10;;;;;;;18.84;80.79;100865.00;5008914;28;20064;-70
2023/05/06 09:04:53;;;;;;;3.50;1.65;;;;;;;19.53;79.29;100841.75;5008410;28;20038;-72
2023/05/06 09:07:23;;;;;;;5.40;2.80;;;;;;;20.91;73.76;100961.72;5001474;28;20054;-72
2023/05/06 09:09:50;;;;;;;3.60;1.75;;;;;;;20.43;71.84;100878.84;5005051;28;20112;-72
2023/05/06 09:12:15;;;;;;;2.85;1.95;;;;;;;19.48;73.78;100958.09;5022952;28;20037;-69
2023/05/06 09:14:41;;;;;;;5.70;1.83;;;;;;;19.43;79.56;100944.06;5033471;28;20079;-71
2023/05/06 09:17:23;;;;;;;4.70;2.28;;;;;;;19.18;78.33;100966.91;5024512;28;20433;-71
2023/05/06 09:19:53;;;;;;;2.75;1.92;;;;;;;18.69;78.56;100930.91;5026761;28;20603;-75
2023/05/06 09:22:23;;;;;;;3.78;1.75;;;;;;;18.79;81.92;100936.03;5024545;28;20048;-73
2023/05/06 09:24:55;;;;;;;3.22;2.03;;;;;;;18.77;86.37;100973.28;5029431;28;20086;-75
2023/05/06 09:27:34;;;;;;;2.97;1.90;;;;;;;18.48;85.65;100891.59;5028043;28;20092;-71
2023/05/06 09:30:07;;;;;;;4.40;2.35;;;;;;;19.37;77.65;100924.69;5009087;28;20092;-71
2023/05/06 09:32:33;;;;;;;3.45;1.80;;;;;;;19.19;72.36;100843.59;5006622;28;20052;-73
2023/05/06 09:35:00;;;;;;;4.13;2.15;;;;;;;19.47;68.99;100815.31;5020907;28;20079;-70
2023/05/06 09:37:26;;;;;;;2.95;1.85;;;;;;;20.53;66.62;100844.75;5033300;28;20053;-73
2023/05/06 09:39:56;;;;;;;3.25;1.92;;;;;;;21.99;61.99;100858.06;5021648;28;20042;-72
2023/05/06 09:42:26;;;;;;;2.85;2.08;;;;;;;22.73;60.74;100943.31;5019231;28;20481;-73
2023/05/06 09:44:57;;;;;;;4.03;1.88;;;;;;;20.48;60.22;100934.69;5009427;28;20045;-73
2023/05/06 09:47:25;;;;;;;3.65;1.70;;;;;;;20.11;67.40;100946.53;5024181;28;20073;-72
2023/05/06 09:49:54;;;;;;;2.55;1.30;;;;;;;20.32;61.51;100937.00;5021267;28;20054;-72
2023/05/06 09:52:22;;;;;;;2.60;1.15;;;;;;;21.19;59.71;100909.16;5037640;28;20119;-72
2023/05/06 09:54:50;;;;;;;4.55;1.90;;;;;;;18.70;66.36;100844.91;5023905;28;20496;-72
2023/05/06 09:57:17;;;;;;;2.95;1.58;;;;;;;19.71;65.01;100862.50;5024387;28;20068;-72
2023/05/06 09:59:44;;;;;;;5.43;1.55;;;;;;;19.60;61.98;100934.69;5024464;28;20068;-70
2023/05/06 10:02:12;;;;;;;2.45;1.10;;;;;;;19.84;62.12;100937.56;5018745;28;20452;-72
2023/05/06 10:04:40;;;;;;;3.40;1.55;;;;;;;21.69;63.34;100924.25;5019317;28;20099;-71
2023/05/06 10:07:12;;;;;;;4.85;1.80;;;;;;;21.21;56.18;100842.34;5023122;28;20025;-69
2023/05/06 10:09:39;;;;;;;3.90;2.00;;;;;;;21.39;53.63;100855.03;5018199;28;20041;-70
2023/05/06 10:12:10;;;;;;;3.67;1.83;;;;;;;21.82;56.47;100833.81;5019271;28;20573;-70
2023/05/06 10:14:36;;;;;;;2.83;1.98;;;;;;;21.85;53.96;100842.59;5020789;28;20111;-73
2023/05/06 10:17:10;;;;;;;3.38;1.50;;;;;;;20.18;56.42;100845.94;5021121;28;20038;-74
2023/05/06 10:19:40;;;;;;;2.80;1.42;;;;;;;20.14;58.43;100906.47;5020152;28;20042;-73
2023/05/06 10:22:21;;;;;;;2.95;1.50;;;;;;;19.86;58.21;100924.22;5032333;28;20096;-72
2023/05/06 10:25:09;;;;;;;2.40;1.35;;;;;;;19.86;57.46;100828.34;5032846;28;20033;-72
2023/05/06 10:27:40;;;;;;;1.67;1.25;;;;;;;21.09;58.39;100894.38;5022811;28;20049;-73
2023/05/06 10:30:08;;;;;;;2.13;1.27;;;;;;;20.50;56.18;100822.66;5006795;28;20060;-72
2023/05/06 10:32:37;;;;;;;3.28;1.52;;;;;;;20.52;56.53;100831.47;5022527;28;20741;-74
2023/05/06 10:35:18;;;;;;;1.98;1.05;;;;;;;20.69;55.72;100901.13;5037721;28;20045;-73
2023/05/06 10:37:46;;;;;;;2.05;1.05;;;;;;;20.89;54.79;100896.91;5018648;28;20056;-72
2023/05/06 10:40:12;;;;;;;2.33;1.08;;;;;;;20.69;54.94;100834.44;4998798;28;20050;-71
2023/05/06 10:42:38;;;;;;;3.38;1.20;;;;;;;21.12;53.49;100904.06;5001166;28;20065;-71
2023/05/06 10:45:04;;;;;;;3.25;1.30;;;;;;;19.72;55.01;100823.44;5011732;28;20639;-71
2023/05/06 10:47:56;;;;;;;1.58;0.90;;;;;;;20.83;53.62;100928.19;5006827;28;20125;-70
2023/05/06 10:50:23;;;;;;;2.20;0.90;;;;;;;20.12;54.34;100912.75;5002082;28;20577;-71
2023/05/06 10:52:56;;;;;;;4.20;2.08;;;;;;;20.40;57.09;100892.28;5015829;28;20110;-71
2023/05/06 10:55:33;;;;;;;2.83;1.55;;;;;;;21.45;53.05;100894.88;5034202;28;20610;-71
2023/05/06 10:58:05;;;;;;;2.50;1.00;;;;;;;21.11;52.49;100923.69;5046781;28;20029;-71
2023/05/06 11:00:32;;;;;;;2.35;1.10;;;;;;;19.57;51.88;100780.38;5022778;28;20041;-76
2023/05/06 11:03:01;;;;;;;2.58;1.38;;;;;;;21.26;50.91;100909.81;5030037;28;20152;-75
2023/05/06 11:05:27;;;;;;;2.25;1.10;;;;;;;21.62;51.97;100899.59;5021999;28;20057;-74
2023/05/06 11:08:07;;;;;;;2.80;1.27;;;;;;;22.45;51.12;100829.47;5020087;28;20041;-75
2023/05/06 11:10:33;;;;;;;2.92;1.48;;;;;;;20.98;48.17;100883.25;5006983;28;20050;-74
2023/05/06 11:13:17;;;;;;;2.38;1.60;;;;;;;21.41;50.48;100887.91;5009258;28;20042;-75
2023/05/06 11:15:45;;;;;;;3.97;1.40;;;;;;;21.47;49.09;100908.19;5005380;28;20034;-75
2023/05/06 11:18:40;;;;;;;2.55;1.35;;;;;;;21.01;49.96;100909.81;5011190;28;20049;-75